Time;durP1;ratioP1;P1;durP2;ratioP2;P2;SDS_P1;SDS_P2;PMS_P1;PMS_P2;Temp;Humidity;BMP_temperature;BMP_pressure;BME280_temperature;BME280_humidity;BME280_pressure;Samples;Min_cycle;Max_cycle;Signal;HPM_P1;HPM_P2
2022/09/09 00:00:56;;;;;;;;;;;22.70;52.40;;;;;;469268;254;1348;-73
2022/09/09 00:02:58;;;;;;;;;;;22.80;52.50;;;;;;469368;254;1104;-73
2022/09/09 00:05:01;;;;;;;;;;;22.70;52.50;;;;;;469374;254;1151;-73
2022/09/09 00:07:03;;;;;;;;;;;22.70;52.50;;;;;;469295;254;1397;-73
2022/09/09 00:09:03;;;;;;;;;;;22.70;52.50;;;;;;469257;254;1500;-74
2022/09/09 00:11:05;;;;;;;;;;;22.70;52.50;;;;;;469628;254;1214;-74
2022/09/09 00:13:07;;;;;;;;;;;22.70;52.50;;;;;;469320;254;1134;-74
2022/09/09 00:15:08;;;;;;;;;;;22.70;52.50;;;;;;469388;254;1215;-73
2022/09/09 00:17:09;;;;;;;;;;;22.70;52.50;;;;;;469424;254;1105;-73
2022/09/09 00:19:11;;;;;;;;;;;22.70;52.50;;;;;;469373;254;2152;-74
2022/09/09 00:21:12;;;;;;;;;;;22.70;52.50;;;;;;469289;254;1227;-74
2022/09/09 00:23:13;;;;;;;;;;;22.70;52.50;;;;;;469376;254;1136;-74
2022/09/09 00:25:16;;;;;;;;;;;22.70;52.40;;;;;;469409;254;1161;-74
2022/09/09 00:27:16;;;;;;;;;;;22.70;52.40;;;;;;469219;254;1464;-74
2022/09/09 00:29:17;;;;;;;;;;;22.70;52.40;;;;;;469320;254;1086;-74
2022/09/09 00:31:19;;;;;;;;;;;22.70;52.50;;;;;;469381;254;1349;-74
2022/09/09 00:33:22;;;;;;;;;;;22.70;52.50;;;;;;469377;254;1163;-74
2022/09/09 00:35:22;;;;;;;;;;;22.70;52.40;;;;;;469276;254;1313;-74
2022/09/09 00:37:25;;;;;;;;;;;22.70;52.40;;;;;;469341;254;1262;-73
2022/09/09 00:39:24;;;;;;;;;;;22.70;52.50;;;;;;469096;254;2231;-74
2022/09/09 00:41:25;;;;;;;;;;;22.70;52.50;;;;;;469371;254;1287;-74
2022/09/09 00:43:27;;;;;;;;;;;22.70;52.50;;;;;;469393;254;1181;-74
2022/09/09 00:45:28;;;;;;;;;;;22.70;52.40;;;;;;469314;254;1191;-73
2022/09/09 00:47:30;;;;;;;;;;;22.70;52.50;;;;;;469390;254;1282;-73
2022/09/09 00:49:31;;;;;;;;;;;22.70;52.50;;;;;;469435;254;1214;-73
2022/09/09 00:51:32;;;;;;;;;;;22.70;52.50;;;;;;469308;254;1173;-74
2022/09/09 00:53:33;;;;;;;;;;;22.70;52.50;;;;;;469377;254;1222;-74
2022/09/09 00:55:35;;;;;;;;;;;22.70;52.40;;;;;;469256;254;1248;-74
2022/09/09 00:57:36;;;;;;;;;;;22.70;52.30;;;;;;469288;254;1235;-74
2022/09/09 00:59:37;;;;;;;;;;;22.70;52.40;;;;;;469595;254;2199;-74
2022/09/09 01:01:40;;;;;;;;;;;22.60;52.50;;;;;;469278;254;1157;-74
2022/09/09 01:03:41;;;;;;;;;;;22.60;52.60;;;;;;469537;254;1185;-74
2022/09/09 01:05:42;;;;;;;;;;;22.60;52.50;;;;;;469355;254;1108;-74
2022/09/09 01:07:44;;;;;;;;;;;22.60;52.60;;;;;;469347;254;1112;-74
2022/09/09 01:09:45;;;;;;;;;;;22.60;52.60;;;;;;469406;254;1190;-74
2022/09/09 01:11:46;;;;;;;;;;;22.60;52.60;;;;;;469351;254;1050;-73
2022/09/09 01:13:48;;;;;;;;;;;22.70;52.50;;;;;;469349;254;1080;-73
2022/09/09 01:15:49;;;;;;;;;;;22.70;52.50;;;;;;469359;254;1097;-73
2022/09/09 01:17:51;;;;;;;;;;;22.70;52.40;;;;;;469395;254;1073;-73
2022/09/09 01:19:52;;;;;;;;;;;22.70;52.40;;;;;;469521;254;2165;-73
2022/09/09 01:21:53;;;;;;;;;;;22.70;52.30;;;;;;469305;254;1070;-73
2022/09/09 01:23:55;;;;;;;;;;;22.70;52.30;;;;;;469335;254;1239;-73
2022/09/09 01:25:56;;;;;;;;;;;22.70;52.20;;;;;;469395;254;1287;-73
2022/09/09 01:27:57;;;;;;;;;;;22.70;52.20;;;;;;469322;254;1238;-74
2022/09/09 01:29:59;;;;;;;;;;;22.70;52.30;;;;;;469677;254;1284;-73
2022/09/09 01:32:00;;;;;;;;;;;22.70;52.30;;;;;;469294;254;1229;-73
2022/09/09 01:34:01;;;;;;;;;;;22.60;52.30;;;;;;469451;254;1440;-73
2022/09/09 01:36:03;;;;;;;;;;;22.70;52.30;;;;;;469663;254;1231;-73
2022/09/09 01:38:04;;;;;;;;;;;22.60;52.20;;;;;;469339;254;1234;-73
2022/09/09 01:40:06;;;;;;;;;;;22.70;52.30;;;;;;469253;254;2176;-73
2022/09/09 01:42:07;;;;;;;;;;;22.60;52.30;;;;;;469408;254;1140;-73
2022/09/09 01:44:08;;;;;;;;;;;22.60;52.40;;;;;;469365;254;1132;-73
2022/09/09 01:46:10;;;;;;;;;;;22.60;52.40;;;;;;469344;254;1095;-73
2022/09/09 01:48:11;;;;;;;;;;;22.60;52.40;;;;;;469331;254;1117;-73
2022/09/09 01:50:12;;;;;;;;;;;22.60;52.30;;;;;;469416;254;1150;-73
2022/09/09 01:52:14;;;;;;;;;;;22.60;52.30;;;;;;469320;254;1187;-74
2022/09/09 01:54:15;;;;;;;;;;;22.60;52.40;;;;;;469575;254;1136;-74
2022/09/09 01:56:16;;;;;;;;;;;22.60;52.50;;;;;;469389;254;1242;-74
2022/09/09 01:58:17;;;;;;;;;;;22.60;52.50;;;;;;469376;254;1103;-74
2022/09/09 02:00:19;;;;;;;;;;;22.60;52.40;;;;;;469537;254;2204;-74
2022/09/09 02:02:20;;;;;;;;;;;22.60;52.30;;;;;;469341;254;1334;-74
2022/09/09 02:06:32;;;;;;;;;;;22.70;52.20;;;;;;467212;249;2581;-73
2022/09/09 02:08:33;;;;;;;;;;;22.70;52.20;;;;;;478568;249;1080;-73
2022/09/09 02:10:34;;;;;;;;;;;22.70;52.20;;;;;;478759;249;1237;-73
2022/09/09 02:12:36;;;;;;;;;;;22.70;52.00;;;;;;477700;249;1381;-73
2022/09/09 02:14:37;;;;;;;;;;;22.70;52.10;;;;;;476710;250;1304;-73
2022/09/09 02:16:38;;;;;;;;;;;22.70;52.10;;;;;;476589;250;1219;-74
2022/09/09 02:18:40;;;;;;;;;;;22.70;52.20;;;;;;476963;250;1182;-74
2022/09/09 02:20:41;;;;;;;;;;;22.60;52.20;;;;;;477052;250;2153;-74
2022/09/09 02:22:43;;;;;;;;;;;22.60;52.20;;;;;;476584;250;1274;-74
2022/09/09 02:24:44;;;;;;;;;;;22.70;52.20;;;;;;476663;250;1577;-73
2022/09/09 02:26:45;;;;;;;;;;;22.70;52.10;;;;;;476604;250;1284;-73
2022/09/09 02:28:46;;;;;;;;;;;22.70;52.00;;;;;;476681;250;1124;-73
2022/09/09 02:30:48;;;;;;;;;;;22.80;52.10;;;;;;476686;250;1179;-73
2022/09/09 02:32:49;;;;;;;;;;;22.70;52.10;;;;;;476894;250;1099;-73
2022/09/09 02:34:50;;;;;;;;;;;22.70;52.10;;;;;;476702;250;1172;-73
2022/09/09 02:36:52;;;;;;;;;;;22.60;52.20;;;;;;476687;250;1267;-74
2022/09/09 02:38:53;;;;;;;;;;;22.70;52.20;;;;;;477011;250;1199;-74
2022/09/09 02:40:54;;;;;;;;;;;22.70;52.10;;;;;;476927;250;2188;-74
2022/09/09 02:42:56;;;;;;;;;;;22.60;52.20;;;;;;476652;250;1122;-74
2022/09/09 02:44:57;;;;;;;;;;;22.60;52.30;;;;;;476827;250;1170;-73
2022/09/09 02:46:58;;;;;;;;;;;22.60;52.30;;;;;;476719;250;1083;-73
2022/09/09 02:49:00;;;;;;;;;;;22.60;52.40;;;;;;476681;250;1081;-73
2022/09/09 02:51:01;;;;;;;;;;;22.60;52.40;;;;;;476682;250;1203;-73
2022/09/09 02:53:02;;;;;;;;;;;22.60;52.30;;;;;;476728;250;1135;-73
2022/09/09 02:55:04;;;;;;;;;;;22.60;52.30;;;;;;476651;250;1159;-73
2022/09/09 02:57:05;;;;;;;;;;;22.60;52.30;;;;;;476656;250;1199;-73
2022/09/09 02:59:07;;;;;;;;;;;22.60;52.30;;;;;;476667;250;1128;-73
2022/09/09 03:01:08;;;;;;;;;;;22.60;52.30;;;;;;476981;250;2196;-73
2022/09/09 03:03:09;;;;;;;;;;;22.70;52.20;;;;;;476661;250;1182;-73
2022/09/09 03:05:12;;;;;;;;;;;22.70;52.00;;;;;;477102;250;1136;-74
2022/09/09 03:07:12;;;;;;;;;;;22.70;52.00;;;;;;476506;250;1403;-74
2022/09/09 03:09:14;;;;;;;;;;;22.70;52.00;;;;;;477090;250;1180;-74
2022/09/09 03:11:15;;;;;;;;;;;22.70;52.00;;;;;;476769;250;1427;-73
2022/09/09 03:13:19;;;;;;;;;;;22.60;52.00;;;;;;476667;250;1250;-73
2022/09/09 03:15:18;;;;;;;;;;;22.70;52.00;;;;;;476500;250;1420;-73
2022/09/09 03:17:19;;;;;;;;;;;22.60;52.00;;;;;;477090;250;1183;-73
2022/09/09 03:19:20;;;;;;;;;;;22.60;52.00;;;;;;476674;250;1263;-73
2022/09/09 03:21:22;;;;;;;;;;;22.60;52.00;;;;;;476646;250;2156;-73
2022/09/09 03:23:23;;;;;;;;;;;22.70;52.10;;;;;;476793;250;1202;-74
2022/09/09 03:25:25;;;;;;;;;;;22.60;52.20;;;;;;476644;250;1249;-74
2022/09/09 03:27:26;;;;;;;;;;;22.60;52.10;;;;;;476623;250;1490;-74
2022/09/09 03:29:27;;;;;;;;;;;22.70;52.00;;;;;;476779;250;1096;-74
2022/09/09 03:31:29;;;;;;;;;;;22.70;52.00;;;;;;476689;250;1093;-73
2022/09/09 03:33:31;;;;;;;;;;;22.70;52.10;;;;;;476690;250;1064;-73
2022/09/09 03:35:32;;;;;;;;;;;22.60;52.00;;;;;;476865;250;1044;-73
2022/09/09 03:37:33;;;;;;;;;;;22.70;52.00;;;;;;476684;250;1105;-74
2022/09/09 03:39:35;;;;;;;;;;;22.60;52.00;;;;;;476819;250;1097;-74
2022/09/09 03:41:37;;;;;;;;;;;22.60;52.00;;;;;;476738;250;2164;-74
2022/09/09 03:43:37;;;;;;;;;;;22.60;52.10;;;;;;476790;250;1429;-74
2022/09/09 03:45:38;;;;;;;;;;;22.60;52.20;;;;;;476891;250;1090;-74
2022/09/09 03:47:40;;;;;;;;;;;22.60;52.10;;;;;;476680;250;1180;-74
2022/09/09 03:49:41;;;;;;;;;;;22.60;52.10;;;;;;476677;250;1035;-74
2022/09/09 03:51:43;;;;;;;;;;;22.60;52.20;;;;;;476781;250;1146;-74
2022/09/09 03:53:44;;;;;;;;;;;22.60;52.20;;;;;;476653;250;1129;-74
2022/09/09 03:55:45;;;;;;;;;;;22.60;52.10;;;;;;476785;250;1248;-73
2022/09/09 03:57:47;;;;;;;;;;;22.60;52.20;;;;;;476692;250;1134;-74
2022/09/09 03:59:48;;;;;;;;;;;22.60;52.20;;;;;;476789;250;1094;-74
2022/09/09 04:01:50;;;;;;;;;;;22.60;52.20;;;;;;476803;250;2204;-74
2022/09/09 04:03:52;;;;;;;;;;;22.70;52.20;;;;;;476916;250;1255;-74
2022/09/09 04:05:52;;;;;;;;;;;22.60;52.20;;;;;;476541;250;1402;-74
2022/09/09 04:07:54;;;;;;;;;;;22.60;52.20;;;;;;476828;250;1161;-74
2022/09/09 04:09:55;;;;;;;;;;;22.60;52.20;;;;;;476684;250;1268;-74
2022/09/09 04:11:56;;;;;;;;;;;22.60;52.20;;;;;;477033;250;1164;-74
2022/09/09 04:13:58;;;;;;;;;;;22.60;52.40;;;;;;476587;250;1225;-74
2022/09/09 04:15:59;;;;;;;;;;;22.60;52.30;;;;;;476786;250;1346;-73
2022/09/09 04:18:00;;;;;;;;;;;22.60;52.20;;;;;;476715;250;1294;-73
2022/09/09 04:20:02;;;;;;;;;;;22.70;52.20;;;;;;477026;250;1341;-73
2022/09/09 04:22:03;;;;;;;;;;;22.60;52.20;;;;;;476787;250;2191;-73
2022/09/09 04:24:04;;;;;;;;;;;22.60;52.30;;;;;;476741;250;1332;-73
2022/09/09 04:26:06;;;;;;;;;;;22.70;52.30;;;;;;476535;250;1165;-73
2022/09/09 04:28:07;;;;;;;;;;;22.60;52.20;;;;;;476552;250;1146;-73
2022/09/09 04:30:08;;;;;;;;;;;22.60;52.30;;;;;;476755;250;1416;-74
2022/09/09 04:32:10;;;;;;;;;;;22.60;52.50;;;;;;476525;250;1211;-74
2022/09/09 04:34:11;;;;;;;;;;;22.60;52.40;;;;;;476545;250;1288;-74
2022/09/09 04:36:12;;;;;;;;;;;22.60;52.30;;;;;;476733;250;1252;-74
2022/09/09 04:38:14;;;;;;;;;;;22.60;52.30;;;;;;476893;250;1358;-74
2022/09/09 04:40:15;;;;;;;;;;;22.60;52.30;;;;;;476531;250;1155;-74
2022/09/09 04:42:17;;;;;;;;;;;22.60;52.40;;;;;;476842;250;2165;-74
2022/09/09 04:44:18;;;;;;;;;;;22.60;52.40;;;;;;476721;250;1371;-74
2022/09/09 04:46:19;;;;;;;;;;;22.60;52.40;;;;;;476714;250;1362;-74
2022/09/09 04:48:21;;;;;;;;;;;22.60;52.40;;;;;;477054;250;1277;-74
2022/09/09 04:50:22;;;;;;;;;;;22.60;52.50;;;;;;476807;250;1270;-74
2022/09/09 04:52:24;;;;;;;;;;;22.60;52.50;;;;;;476711;250;1106;-74
2022/09/09 04:54:25;;;;;;;;;;;22.60;52.50;;;;;;476630;250;1187;-74
2022/09/09 04:56:28;;;;;;;;;;;22.60;52.40;;;;;;477072;250;1230;-74
2022/09/09 04:58:28;;;;;;;;;;;22.60;52.40;;;;;;476631;250;1323;-73
2022/09/09 05:00:29;;;;;;;;;;;22.70;52.40;;;;;;476799;250;1209;-73
2022/09/09 05:02:31;;;;;;;;;;;22.70;52.30;;;;;;476892;250;2195;-73
2022/09/09 05:04:32;;;;;;;;;;;22.60;52.30;;;;;;477017;250;1495;-73
2022/09/09 05:06:35;;;;;;;;;;;22.60;52.40;;;;;;476595;250;1234;-73
2022/09/09 05:08:35;;;;;;;;;;;22.70;52.30;;;;;;476586;250;1444;-73
2022/09/09 05:10:36;;;;;;;;;;;22.70;52.30;;;;;;476639;250;1309;-73
2022/09/09 05:12:38;;;;;;;;;;;22.60;52.30;;;;;;476992;250;1184;-73
2022/09/09 05:14:39;;;;;;;;;;;22.60;52.40;;;;;;476876;250;1160;-73
2022/09/09 05:16:40;;;;;;;;;;;22.60;52.40;;;;;;476969;250;1104;-73
2022/09/09 05:18:42;;;;;;;;;;;22.60;52.40;;;;;;476697;250;1198;-73
2022/09/09 05:20:43;;;;;;;;;;;22.70;52.40;;;;;;476708;250;2152;-73
2022/09/09 05:22:45;;;;;;;;;;;22.60;52.40;;;;;;477040;250;1253;-73
2022/09/09 05:24:46;;;;;;;;;;;22.70;52.40;;;;;;476606;250;1234;-73
2022/09/09 05:26:48;;;;;;;;;;;22.60;52.50;;;;;;476542;250;1212;-73
2022/09/09 05:28:49;;;;;;;;;;;22.60;52.60;;;;;;476545;250;1265;-73
2022/09/09 05:30:50;;;;;;;;;;;22.60;52.70;;;;;;476693;250;1175;-73
2022/09/09 05:32:51;;;;;;;;;;;22.60;52.70;;;;;;476731;250;1207;-73
2022/09/09 05:34:53;;;;;;;;;;;22.60;52.70;;;;;;476539;250;1128;-73
2022/09/09 05:36:54;;;;;;;;;;;22.60;52.80;;;;;;477107;250;1275;-73
2022/09/09 05:38:55;;;;;;;;;;;22.60;52.60;;;;;;476537;250;1169;-74
2022/09/09 05:40:57;;;;;;;;;;;22.60;52.60;;;;;;476609;250;2207;-74
2022/09/09 05:42:58;;;;;;;;;;;22.60;52.70;;;;;;476482;250;1198;-74
2022/09/09 05:44:59;;;;;;;;;;;22.60;52.70;;;;;;476505;250;1361;-74
2022/09/09 05:47:01;;;;;;;;;;;22.60;52.60;;;;;;476525;250;1125;-74
2022/09/09 05:49:02;;;;;;;;;;;22.70;52.60;;;;;;476571;250;1142;-74
2022/09/09 05:51:03;;;;;;;;;;;22.70;52.50;;;;;;476577;250;1202;-74
2022/09/09 05:53:05;;;;;;;;;;;22.70;52.70;;;;;;477065;250;1268;-74
2022/09/09 05:55:06;;;;;;;;;;;22.60;52.80;;;;;;476215;250;1217;-73
2022/09/09 05:57:07;;;;;;;;;;;22.60;52.90;;;;;;476557;250;1084;-74
2022/09/09 05:59:09;;;;;;;;;;;22.50;53.10;;;;;;476513;250;1080;-74
2022/09/09 06:01:10;;;;;;;;;;;22.40;53.40;;;;;;476560;250;2221;-74
2022/09/09 06:03:11;;;;;;;;;;;22.40;53.30;;;;;;476587;250;1068;-74
2022/09/09 06:05:13;;;;;;;;;;;22.40;53.20;;;;;;476609;250;1099;-73
2022/09/09 06:07:15;;;;;;;;;;;22.40;53.30;;;;;;476769;250;1246;-73
2022/09/09 06:09:16;;;;;;;;;;;22.40;53.30;;;;;;476720;250;1185;-73
2022/09/09 06:11:17;;;;;;;;;;;22.40;53.40;;;;;;476661;250;1182;-73
2022/09/09 06:13:19;;;;;;;;;;;22.30;53.50;;;;;;476605;250;1285;-73
2022/09/09 06:15:20;;;;;;;;;;;22.30;53.70;;;;;;476600;250;1235;-74
2022/09/09 06:17:21;;;;;;;;;;;22.30;53.80;;;;;;476688;250;1197;-73
2022/09/09 06:19:26;;;;;;;;;;;22.40;53.60;;;;;;476618;250;1235;-73
2022/09/09 06:21:25;;;;;;;;;;;22.40;53.50;;;;;;476688;250;2152;-73
2022/09/09 06:23:26;;;;;;;;;;;22.40;53.50;;;;;;476744;250;1165;-74
2022/09/09 06:25:27;;;;;;;;;;;22.40;53.50;;;;;;476587;250;1215;-74
2022/09/09 06:27:29;;;;;;;;;;;22.40;53.50;;;;;;476554;250;1245;-74
2022/09/09 06:29:30;;;;;;;;;;;22.40;53.50;;;;;;476571;250;1253;-74
2022/09/09 06:31:33;;;;;;;;;;;22.40;53.50;;;;;;476766;250;1158;-74
2022/09/09 06:33:34;;;;;;;;;;;22.40;53.60;;;;;;476406;250;1436;-74
2022/09/09 06:35:34;;;;;;;;;;;22.40;53.50;;;;;;476674;250;1453;-74
2022/09/09 06:37:36;;;;;;;;;;;22.30;53.60;;;;;;476410;250;1165;-73
2022/09/09 06:39:37;;;;;;;;;;;22.40;54.00;;;;;;476350;250;1422;-73
2022/09/09 06:41:38;;;;;;;;;;;22.30;54.00;;;;;;476534;250;2180;-73
2022/09/09 06:43:40;;;;;;;;;;;22.40;53.90;;;;;;476489;250;1208;-73
2022/09/09 06:45:41;;;;;;;;;;;22.40;53.80;;;;;;476550;250;1121;-73
2022/09/09 06:47:43;;;;;;;;;;;22.40;53.70;;;;;;476274;250;1290;-73
2022/09/09 06:49:44;;;;;;;;;;;22.40;53.80;;;;;;476339;250;1292;-73
2022/09/09 06:51:46;;;;;;;;;;;22.40;53.70;;;;;;476176;250;1171;-73
2022/09/09 06:53:47;;;;;;;;;;;22.40;53.70;;;;;;476026;250;1152;-73
2022/09/09 06:55:48;;;;;;;;;;;22.50;53.70;;;;;;476273;250;1326;-73
2022/09/09 06:57:50;;;;;;;;;;;22.50;53.60;;;;;;476171;250;1181;-73
2022/09/09 06:59:51;;;;;;;;;;;22.50;53.60;;;;;;476169;250;1501;-73
2022/09/09 07:01:54;;;;;;;;;;;22.50;53.60;;;;;;476162;250;2207;-73
2022/09/09 07:03:54;;;;;;;;;;;22.50;53.60;;;;;;476065;250;1457;-73
2022/09/09 07:05:55;;;;;;;;;;;22.50;53.70;;;;;;476165;250;1374;-73
2022/09/09 07:07:56;;;;;;;;;;;22.40;53.70;;;;;;476409;250;1875;-74
2022/09/09 07:09:58;;;;;;;;;;;22.40;53.80;;;;;;476144;250;1758;-73
2022/09/09 07:12:00;;;;;;;;;;;22.40;53.90;;;;;;476444;250;1242;-73
2022/09/09 07:14:01;;;;;;;;;;;22.40;54.00;;;;;;476307;250;1247;-74
2022/09/09 07:16:02;;;;;;;;;;;22.40;54.10;;;;;;476247;250;1221;-73
2022/09/09 07:18:03;;;;;;;;;;;22.30;54.10;;;;;;476253;250;1078;-73
2022/09/09 07:20:05;;;;;;;;;;;22.50;53.90;;;;;;476301;250;1123;-73
2022/09/09 07:22:06;;;;;;;;;;;22.50;53.70;;;;;;476028;250;2152;-73
2022/09/09 07:24:09;;;;;;;;;;;22.50;53.80;;;;;;476142;250;1080;-74
2022/09/09 07:26:10;;;;;;;;;;;22.50;53.80;;;;;;475982;250;1352;-73
2022/09/09 07:28:11;;;;;;;;;;;22.50;53.80;;;;;;476038;250;1290;-73
2022/09/09 07:30:12;;;;;;;;;;;22.60;53.80;;;;;;476213;250;1155;-73
2022/09/09 07:32:13;;;;;;;;;;;22.50;53.80;;;;;;475889;250;1457;-73
2022/09/09 07:34:15;;;;;;;;;;;22.50;54.00;;;;;;475985;250;1124;-73
2022/09/09 07:36:17;;;;;;;;;;;22.50;54.00;;;;;;475885;250;1597;-73
2022/09/09 07:38:18;;;;;;;;;;;22.50;54.20;;;;;;476012;250;1337;-73
2022/09/09 07:40:20;;;;;;;;;;;22.50;54.20;;;;;;476272;250;1416;-73
2022/09/09 07:42:20;;;;;;;;;;;22.60;54.10;;;;;;475960;250;2200;-73
2022/09/09 07:44:22;;;;;;;;;;;22.50;54.10;;;;;;476141;250;1182;-73
2022/09/09 07:46:23;;;;;;;;;;;22.50;54.20;;;;;;476008;250;1166;-73
2022/09/09 07:48:25;;;;;;;;;;;22.60;54.20;;;;;;475981;250;1181;-73
2022/09/09 07:50:26;;;;;;;;;;;22.50;54.10;;;;;;475779;250;1321;-73
2022/09/09 07:52:28;;;;;;;;;;;22.60;54.00;;;;;;475953;250;1206;-73
2022/09/09 07:54:29;;;;;;;;;;;22.60;54.00;;;;;;476061;250;1244;-73
2022/09/09 07:56:31;;;;;;;;;;;22.60;54.10;;;;;;475964;250;1215;-73
2022/09/09 07:58:32;;;;;;;;;;;22.60;54.20;;;;;;476051;250;1210;-73
2022/09/09 08:00:33;;;;;;;;;;;22.50;54.10;;;;;;475975;250;1460;-73
2022/09/09 08:02:35;;;;;;;;;;;22.60;54.30;;;;;;475899;250;2148;-73
2022/09/09 08:04:36;;;;;;;;;;;22.60;54.20;;;;;;475938;250;1069;-73
2022/09/09 08:06:37;;;;;;;;;;;22.60;54.10;;;;;;475969;250;1146;-73
2022/09/09 08:08:40;;;;;;;;;;;22.70;54.00;;;;;;476063;250;1334;-73
2022/09/09 08:10:40;;;;;;;;;;;22.70;53.90;;;;;;475844;250;1403;-74
2022/09/09 08:12:42;;;;;;;;;;;22.70;53.90;;;;;;475996;250;1215;-73
2022/09/09 08:14:43;;;;;;;;;;;22.60;53.90;;;;;;475902;250;1108;-73
2022/09/09 08:16:44;;;;;;;;;;;22.60;54.10;;;;;;475739;250;1208;-73
2022/09/09 08:18:47;;;;;;;;;;;22.60;54.30;;;;;;476186;250;1165;-73
2022/09/09 08:20:47;;;;;;;;;;;22.60;54.50;;;;;;475887;250;1389;-73
2022/09/09 08:22:49;;;;;;;;;;;22.60;54.60;;;;;;475786;250;2184;-73
2022/09/09 08:24:50;;;;;;;;;;;22.50;54.70;;;;;;475724;250;1388;-73
2022/09/09 08:26:51;;;;;;;;;;;22.50;54.90;;;;;;475842;250;1207;-73
2022/09/09 08:28:52;;;;;;;;;;;22.60;55.00;;;;;;475977;250;1208;-73
2022/09/09 08:30:54;;;;;;;;;;;22.50;54.80;;;;;;475853;250;1138;-73
2022/09/09 08:32:55;;;;;;;;;;;22.50;54.90;;;;;;476015;250;1158;-73
2022/09/09 08:34:57;;;;;;;;;;;22.60;55.00;;;;;;475947;250;1090;-73
2022/09/09 08:36:58;;;;;;;;;;;22.50;55.10;;;;;;475854;250;1427;-73
2022/09/09 08:38:59;;;;;;;;;;;22.50;55.00;;;;;;476051;250;1426;-73
2022/09/09 08:41:00;;;;;;;;;;;22.60;55.00;;;;;;475928;250;1182;-73
2022/09/09 08:43:02;;;;;;;;;;;22.60;55.00;;;;;;475868;250;2220;-73
2022/09/09 08:45:03;;;;;;;;;;;22.60;54.90;;;;;;475888;250;1154;-73
2022/09/09 08:47:06;;;;;;;;;;;22.60;54.90;;;;;;475797;250;1184;-73
2022/09/09 08:49:06;;;;;;;;;;;22.60;55.00;;;;;;475744;250;1309;-73
2022/09/09 08:51:08;;;;;;;;;;;22.60;54.90;;;;;;475865;250;1140;-73
2022/09/09 08:53:08;;;;;;;;;;;22.70;55.00;;;;;;475911;250;1423;-73
2022/09/09 08:55:10;;;;;;;;;;;22.70;55.10;;;;;;475961;250;1438;-73
2022/09/09 08:57:11;;;;;;;;;;;22.70;55.00;;;;;;475828;250;1155;-73
2022/09/09 08:59:12;;;;;;;;;;;22.60;54.90;;;;;;475789;250;1122;-73
2022/09/09 09:01:14;;;;;;;;;;;22.60;55.20;;;;;;475623;250;1237;-73
2022/09/09 09:03:15;;;;;;;;;;;22.60;55.20;;;;;;476007;250;2188;-73
2022/09/09 09:05:17;;;;;;;;;;;22.50;55.30;;;;;;476012;250;1208;-73
2022/09/09 09:07:18;;;;;;;;;;;22.60;55.30;;;;;;475990;250;1121;-73
2022/09/09 09:09:19;;;;;;;;;;;22.60;55.30;;;;;;476002;250;1249;-73
2022/09/09 09:11:22;;;;;;;;;;;22.60;55.20;;;;;;475828;250;1181;-73
2022/09/09 09:13:22;;;;;;;;;;;22.60;55.20;;;;;;475796;250;1279;-73
2022/09/09 09:15:23;;;;;;;;;;;22.60;55.20;;;;;;476037;250;1299;-73
2022/09/09 09:17:25;;;;;;;;;;;22.60;55.30;;;;;;475884;250;1185;-73
2022/09/09 09:19:26;;;;;;;;;;;22.60;55.30;;;;;;475758;250;1293;-73
2022/09/09 09:21:27;;;;;;;;;;;22.60;55.40;;;;;;475923;250;1198;-73
2022/09/09 09:23:28;;;;;;;;;;;22.60;55.40;;;;;;475873;250;2359;-73
2022/09/09 09:25:30;;;;;;;;;;;22.60;55.40;;;;;;475935;250;1239;-73
2022/09/09 09:27:31;;;;;;;;;;;22.60;55.50;;;;;;476019;250;1573;-73
2022/09/09 09:29:32;;;;;;;;;;;22.60;55.50;;;;;;475896;250;1162;-73
2022/09/09 09:31:33;;;;;;;;;;;22.60;55.60;;;;;;475964;250;1161;-73
2022/09/09 09:33:35;;;;;;;;;;;22.70;55.60;;;;;;476238;250;1282;-73
2022/09/09 09:35:36;;;;;;;;;;;22.60;55.60;;;;;;476200;250;1544;-73
2022/09/09 09:37:37;;;;;;;;;;;22.70;55.50;;;;;;476290;250;1186;-73
2022/09/09 09:39:39;;;;;;;;;;;22.70;55.50;;;;;;476221;250;1198;-73
2022/09/09 09:41:40;;;;;;;;;;;22.70;55.50;;;;;;476161;250;1172;-73
2022/09/09 09:43:42;;;;;;;;;;;22.60;55.70;;;;;;476238;250;2204;-73
2022/09/09 09:45:44;;;;;;;;;;;22.60;55.80;;;;;;476233;250;1099;-73
2022/09/09 09:47:46;;;;;;;;;;;22.60;55.80;;;;;;476205;250;1195;-73
2022/09/09 09:49:48;;;;;;;;;;;22.60;56.10;;;;;;476161;250;1474;-73
2022/09/09 09:51:48;;;;;;;;;;;22.50;56.10;;;;;;476061;250;1447;-73
2022/09/09 09:53:52;;;;;;;;;;;22.40;56.20;;;;;;476190;250;1209;-73
2022/09/09 09:55:51;;;;;;;;;;;22.40;56.30;;;;;;475975;250;1535;-73
2022/09/09 09:57:53;;;;;;;;;;;22.50;56.10;;;;;;476152;250;1234;-73
2022/09/09 09:59:54;;;;;;;;;;;22.60;56.00;;;;;;475960;250;1205;-73
2022/09/09 10:01:55;;;;;;;;;;;22.60;55.80;;;;;;474975;250;1373;-73
2022/09/09 10:03:56;;;;;;;;;;;22.60;55.80;;;;;;475388;250;2172;-73
2022/09/09 10:05:58;;;;;;;;;;;22.70;55.70;;;;;;475483;250;1246;-73
2022/09/09 10:07:59;;;;;;;;;;;22.70;55.60;;;;;;475982;250;1221;-73
2022/09/09 10:10:01;;;;;;;;;;;22.60;55.70;;;;;;475884;250;1180;-73
2022/09/09 10:12:03;;;;;;;;;;;22.70;55.80;;;;;;476140;250;1250;-73
2022/09/09 10:14:04;;;;;;;;;;;22.60;55.70;;;;;;476233;250;1247;-73
2022/09/09 10:16:06;;;;;;;;;;;22.60;55.70;;;;;;475835;250;1241;-73
2022/09/09 10:18:07;;;;;;;;;;;22.60;55.80;;;;;;476361;250;1235;-73
2022/09/09 10:20:08;;;;;;;;;;;22.60;55.90;;;;;;476048;250;1206;-73
2022/09/09 10:22:10;;;;;;;;;;;22.70;55.80;;;;;;476287;250;1305;-73
2022/09/09 10:24:11;;;;;;;;;;;22.70;55.80;;;;;;476399;250;2208;-73
2022/09/09 10:26:12;;;;;;;;;;;22.70;55.70;;;;;;475991;250;1244;-73
2022/09/09 10:28:14;;;;;;;;;;;22.70;55.80;;;;;;476166;250;1277;-73
2022/09/09 10:30:16;;;;;;;;;;;22.70;55.80;;;;;;476111;250;1234;-73
2022/09/09 10:32:16;;;;;;;;;;;22.70;55.90;;;;;;476152;250;1480;-73
2022/09/09 10:34:18;;;;;;;;;;;22.70;55.90;;;;;;476213;250;1144;-73
2022/09/09 10:36:19;;;;;;;;;;;22.70;56.00;;;;;;476181;250;1157;-73
2022/09/09 10:38:20;;;;;;;;;;;22.70;55.80;;;;;;476076;250;1309;-73
2022/09/09 10:40:24;;;;;;;;;;;22.70;55.80;;;;;;476148;250;1185;-73
2022/09/09 10:42:23;;;;;;;;;;;22.80;55.70;;;;;;475935;250;1276;-74
2022/09/09 10:44:24;;;;;;;;;;;22.80;55.60;;;;;;476165;250;2137;-73
2022/09/09 10:46:27;;;;;;;;;;;22.80;55.50;;;;;;475986;250;1179;-73
2022/09/09 10:48:27;;;;;;;;;;;22.80;55.40;;;;;;475879;250;1447;-73
2022/09/09 10:50:28;;;;;;;;;;;22.70;55.60;;;;;;476059;250;1211;-73
2022/09/09 10:52:29;;;;;;;;;;;22.70;55.80;;;;;;476023;250;1149;-73
2022/09/09 10:54:31;;;;;;;;;;;22.80;55.80;;;;;;476243;250;1170;-73
2022/09/09 10:56:34;;;;;;;;;;;22.70;55.80;;;;;;476431;250;1225;-73
2022/09/09 10:58:34;;;;;;;;;;;22.80;55.70;;;;;;476127;250;1384;-73
2022/09/09 11:00:35;;;;;;;;;;;22.70;55.70;;;;;;476180;250;1233;-73
2022/09/09 11:02:36;;;;;;;;;;;22.70;55.70;;;;;;476183;250;1308;-73
2022/09/09 11:04:37;;;;;;;;;;;22.80;55.70;;;;;;475982;250;2180;-73
2022/09/09 11:06:39;;;;;;;;;;;22.70;55.80;;;;;;476096;250;1240;-73
2022/09/09 11:08:40;;;;;;;;;;;22.70;56.00;;;;;;476172;250;1178;-73
2022/09/09 11:10:41;;;;;;;;;;;22.70;56.00;;;;;;476128;250;1400;-73
2022/09/09 11:12:43;;;;;;;;;;;22.70;55.90;;;;;;475889;250;1454;-73
2022/09/09 11:14:44;;;;;;;;;;;22.70;56.00;;;;;;476107;250;1214;-73
2022/09/09 11:16:45;;;;;;;;;;;22.70;56.00;;;;;;476323;250;1530;-73
2022/09/09 11:18:47;;;;;;;;;;;22.70;56.00;;;;;;475926;250;1234;-73
2022/09/09 11:20:48;;;;;;;;;;;22.70;56.00;;;;;;476304;250;1202;-73
2022/09/09 11:22:49;;;;;;;;;;;22.70;55.90;;;;;;475976;250;2215;-73
2022/09/09 11:24:51;;;;;;;;;;;22.60;56.00;;;;;;476217;250;1208;-74
2022/09/09 11:26:52;;;;;;;;;;;22.60;56.00;;;;;;476199;250;1176;-73
2022/09/09 11:28:53;;;;;;;;;;;22.60;56.00;;;;;;476266;250;1253;-73
2022/09/09 11:30:55;;;;;;;;;;;22.60;56.20;;;;;;476221;250;1218;-73
2022/09/09 11:32:56;;;;;;;;;;;22.60;56.10;;;;;;476236;250;1174;-73
2022/09/09 11:34:57;;;;;;;;;;;22.70;56.10;;;;;;476191;250;1196;-73
2022/09/09 11:36:59;;;;;;;;;;;22.70;56.00;;;;;;476191;250;1213;-73
2022/09/09 11:39:00;;;;;;;;;;;22.70;55.80;;;;;;476199;250;1184;-73
2022/09/09 11:41:01;;;;;;;;;;;22.70;55.80;;;;;;476458;250;1107;-73
2022/09/09 11:43:04;;;;;;;;;;;22.70;55.80;;;;;;476240;250;2172;-73
2022/09/09 11:45:05;;;;;;;;;;;22.70;55.80;;;;;;475243;250;1255;-73
2022/09/09 11:47:05;;;;;;;;;;;22.70;55.70;;;;;;476295;250;1283;-73
2022/09/09 11:49:07;;;;;;;;;;;22.70;55.60;;;;;;476025;250;1198;-73
2022/09/09 11:51:08;;;;;;;;;;;22.80;55.60;;;;;;476203;250;1261;-73
2022/09/09 11:53:10;;;;;;;;;;;22.80;55.40;;;;;;476262;250;1351;-73
2022/09/09 11:55:11;;;;;;;;;;;22.80;55.20;;;;;;476157;250;1098;-73
2022/09/09 11:57:13;;;;;;;;;;;22.80;55.10;;;;;;476254;250;1187;-73
2022/09/09 11:59:14;;;;;;;;;;;22.80;55.20;;;;;;476267;250;1242;-73